Decoded Metar for LFMH (ST.-ETIENNE in FRANCE) (IATA:EBU) | Meteo·Mobile Aviation Weather
aviador You're here:

LFMH Decoded Metar

ST.-ETIENNE in FRANCE
Report Time2019-02-21 23:30:00
UTC Time2019-02-21 23:39:44
Flight Rules vfr VFR
WindCalm
Visibility9999 m
Phenomena:N/A
Clouds:N/A
Expected CloudBase > 1,200 ft AGL from Temp-Dew spread
CeilingNone
Temp01°C (ISA -11)
Dew Point-2°C (81% RH)
AAT-1.2°C
QNH1032 hPa
Density Alt-630 ft
Elevation1,319 ft
Report Wrong Elevation
Raw Report
METAR LFMH 212330Z AUTO 00000KT CAVOK 01/M02 Q1032=

Extra information for LFMH:More info

Metar Taf Metar & Taf Last 4 Metars F.Rules Stats Wind Profile Meteogram Temp Stats Airport Information Weather charts Add Link Nearby VenuesMetar ALERT Operation Metar Decoded Social comments